Time;durP1;ratioP1;P1;durP2;ratioP2;P2;SDS_P1;SDS_P2;PMS_P1;PMS_P2;Temp;Humidity;BMP_temperature;BMP_pressure;BME280_temperature;BME280_humidity;BME280_pressure;Samples;Min_cycle;Max_cycle;Signal;HPM_P1;HPM_P2
2022/03/01 00:02:41;;;;;;;13.83;6.60;;;;;;;;;;10343059;28;20213;-79
2022/03/01 00:07:42;;;;;;;12.20;7.43;;;;;;;;;;10340193;28;20200;-80
2022/03/01 00:12:43;;;;;;;12.07;7.60;;;;;;;;;;10342681;28;20205;-77
2022/03/01 00:17:44;;;;;;;10.23;6.30;;;;;;;;;;10337965;28;20200;-77
2022/03/01 00:22:45;;;;;;;14.20;7.10;;;;;;;;;;10345810;28;20318;-76
2022/03/01 00:27:46;;;;;;;14.03;7.00;;;;;;;;;;10337597;28;20239;-78
2022/03/01 00:32:48;;;;;;;13.30;7.63;;;;;;;;;;10341747;28;20212;-77
2022/03/01 00:37:49;;;;;;;14.23;7.43;;;;;;;;;;10340695;28;20234;-78
2022/03/01 00:42:50;;;;;;;14.67;7.90;;;;;;;;;;10338715;28;20236;-75
2022/03/01 00:47:51;;;;;;;13.70;7.53;;;;;;;;;;10345547;28;20646;-78
2022/03/01 00:52:52;;;;;;;15.70;7.47;;;;;;;;;;10335924;28;20299;-77
2022/03/01 00:57:53;;;;;;;12.17;7.13;;;;;;;;;;10337267;28;20243;-77
2022/03/01 01:02:54;;;;;;;12.73;7.03;;;;;;;;;;10336910;28;22328;-76
2022/03/01 01:07:55;;;;;;;12.13;7.07;;;;;;;;;;10334903;28;20738;-76
2022/03/01 01:12:56;;;;;;;16.43;7.43;;;;;;;;;;10337887;28;21857;-77
2022/03/01 01:17:57;;;;;;;9.60;6.67;;;;;;;;;;10338024;28;20213;-76
2022/03/01 01:22:59;;;;;;;13.43;7.47;;;;;;;;;;10335651;28;20208;-76
2022/03/01 01:28:00;;;;;;;12.67;6.50;;;;;;;;;;10341338;28;20616;-76
2022/03/01 01:33:01;;;;;;;12.03;6.40;;;;;;;;;;10337032;28;20311;-77
2022/03/01 01:38:03;;;;;;;13.53;8.30;;;;;;;;;;10336314;28;20227;-78
2022/03/01 01:43:05;;;;;;;15.80;7.97;;;;;;;;;;10335659;28;20204;-76
2022/03/01 01:48:06;;;;;;;13.07;6.80;;;;;;;;;;10336426;28;20207;-75
2022/03/01 01:53:07;;;;;;;13.93;8.20;;;;;;;;;;10333612;28;20440;-76
2022/03/01 01:58:08;;;;;;;10.97;7.07;;;;;;;;;;10332126;28;20196;-76
2022/03/01 02:03:09;;;;;;;14.97;8.20;;;;;;;;;;10337442;28;20611;-74
2022/03/01 02:08:10;;;;;;;12.10;6.70;;;;;;;;;;10335931;28;20204;-78
2022/03/01 02:13:11;;;;;;;13.57;7.67;;;;;;;;;;10335249;28;20254;-78
2022/03/01 02:18:13;;;;;;;14.60;7.27;;;;;;;;;;10338647;28;20300;-75
2022/03/01 02:23:14;;;;;;;15.73;7.90;;;;;;;;;;10334029;28;20210;-77
2022/03/01 02:28:15;;;;;;;11.63;6.47;;;;;;;;;;10338822;28;21020;-77
2022/03/01 02:33:16;;;;;;;8.50;5.47;;;;;;;;;;10334531;28;20240;-78
2022/03/01 02:38:17;;;;;;;15.30;7.40;;;;;;;;;;10335211;28;20225;-78
2022/03/01 02:43:18;;;;;;;7.77;5.10;;;;;;;;;;10335781;28;20573;-77
2022/03/01 02:48:20;;;;;;;13.50;6.87;;;;;;;;;;10332195;28;20239;-78
2022/03/01 02:53:21;;;;;;;11.07;6.67;;;;;;;;;;10332887;28;20270;-75
2022/03/01 02:58:22;;;;;;;12.33;7.53;;;;;;;;;;10337025;28;20969;-76
2022/03/01 03:03:23;;;;;;;11.13;7.50;;;;;;;;;;10341456;28;20213;-78
2022/03/01 03:08:24;;;;;;;9.80;5.70;;;;;;;;;;10344226;28;20755;-75
2022/03/01 03:13:25;;;;;;;10.80;7.17;;;;;;;;;;10339922;28;20370;-76
2022/03/01 03:18:26;;;;;;;10.53;7.47;;;;;;;;;;10340775;28;20320;-75
2022/03/01 03:23:27;;;;;;;12.63;7.20;;;;;;;;;;10342486;28;20201;-75
2022/03/01 03:28:28;;;;;;;13.43;6.80;;;;;;;;;;10333839;28;21126;-75
2022/03/01 03:33:29;;;;;;;15.50;7.27;;;;;;;;;;10339315;28;20312;-77
2022/03/01 03:38:30;;;;;;;13.50;6.73;;;;;;;;;;10333878;28;20278;-77
2022/03/01 03:43:32;;;;;;;11.73;7.03;;;;;;;;;;10338009;28;21022;-77
2022/03/01 03:48:33;;;;;;;11.33;6.77;;;;;;;;;;10340260;28;20207;-77
2022/03/01 03:53:34;;;;;;;10.53;6.23;;;;;;;;;;10339722;28;20208;-74
2022/03/01 03:58:35;;;;;;;12.10;6.53;;;;;;;;;;10335418;28;20710;-76
2022/03/01 04:03:36;;;;;;;11.10;6.87;;;;;;;;;;10336766;28;20270;-76
2022/03/01 04:08:37;;;;;;;10.83;6.57;;;;;;;;;;10334953;28;20259;-78
2022/03/01 04:13:39;;;;;;;12.40;5.60;;;;;;;;;;10337435;28;20246;-77
2022/03/01 04:18:40;;;;;;;9.50;6.53;;;;;;;;;;10338521;28;20551;-77
2022/03/01 04:23:41;;;;;;;13.90;6.90;;;;;;;;;;10333236;28;20195;-78
2022/03/01 04:28:42;;;;;;;11.40;6.20;;;;;;;;;;10336373;28;20211;-77
2022/03/01 04:33:43;;;;;;;11.13;6.33;;;;;;;;;;10340036;28;20216;-77
2022/03/01 04:38:44;;;;;;;9.03;6.90;;;;;;;;;;10331277;28;20247;-77
2022/03/01 04:43:45;;;;;;;8.77;6.23;;;;;;;;;;10332657;28;20208;-77
2022/03/01 04:48:47;;;;;;;10.90;6.83;;;;;;;;;;10329342;28;20228;-78
2022/03/01 04:53:48;;;;;;;11.00;7.53;;;;;;;;;;10336692;28;20223;-77
2022/03/01 04:58:49;;;;;;;10.60;6.83;;;;;;;;;;10331248;28;20208;-76
2022/03/01 05:03:50;;;;;;;11.73;7.47;;;;;;;;;;10340241;28;20583;-75
2022/03/01 05:08:51;;;;;;;10.10;7.03;;;;;;;;;;10331800;28;20212;-77
2022/03/01 05:13:53;;;;;;;12.23;7.83;;;;;;;;;;10335014;28;20216;-77
2022/03/01 05:18:54;;;;;;;10.07;6.60;;;;;;;;;;10334864;28;20211;-77
2022/03/01 05:23:55;;;;;;;11.47;6.87;;;;;;;;;;10335013;28;20219;-78
2022/03/01 05:28:56;;;;;;;9.77;7.47;;;;;;;;;;10337023;28;20222;-77
2022/03/01 05:33:57;;;;;;;16.83;7.47;;;;;;;;;;10339200;28;20232;-78
2022/03/01 05:38:59;;;;;;;14.67;8.10;;;;;;;;;;10334276;28;20860;-78
2022/03/01 05:44:00;;;;;;;12.57;7.43;;;;;;;;;;10337561;28;20206;-78
2022/03/01 05:49:01;;;;;;;11.80;6.60;;;;;;;;;;10335701;28;20662;-77
2022/03/01 05:54:02;;;;;;;13.07;7.80;;;;;;;;;;10348619;28;20200;-78
2022/03/01 05:59:03;;;;;;;11.03;7.23;;;;;;;;;;10331184;28;20514;-78
2022/03/01 06:04:04;;;;;;;13.77;7.93;;;;;;;;;;10333770;28;20247;-78
2022/03/01 06:09:05;;;;;;;12.07;6.90;;;;;;;;;;10327862;28;20235;-78
2022/03/01 06:14:06;;;;;;;11.90;6.67;;;;;;;;;;10333797;28;20696;-77
2022/03/01 06:19:07;;;;;;;13.03;6.50;;;;;;;;;;10325085;28;20222;-78
2022/03/01 06:24:09;;;;;;;13.27;6.80;;;;;;;;;;10332872;28;20580;-77
2022/03/01 06:29:10;;;;;;;12.80;7.53;;;;;;;;;;10332404;28;20252;-78
2022/03/01 06:34:11;;;;;;;7.53;5.57;;;;;;;;;;10323721;28;20310;-77
2022/03/01 06:39:12;;;;;;;12.93;7.13;;;;;;;;;;10328215;28;20302;-76
2022/03/01 06:44:13;;;;;;;12.63;8.03;;;;;;;;;;10325121;28;20206;-76
2022/03/01 06:49:14;;;;;;;7.43;4.93;;;;;;;;;;10337864;28;21131;-75
2022/03/01 06:54:15;;;;;;;10.23;7.20;;;;;;;;;;10336413;28;20208;-75
2022/03/01 06:59:16;;;;;;;11.07;7.33;;;;;;;;;;10337194;28;20216;-78
2022/03/01 07:04:17;;;;;;;13.67;6.77;;;;;;;;;;10338099;28;20300;-75
2022/03/01 07:09:18;;;;;;;11.47;7.63;;;;;;;;;;10338001;28;20213;-75
2022/03/01 07:14:20;;;;;;;13.43;8.00;;;;;;;;;;10330255;28;20384;-75
2022/03/01 07:19:21;;;;;;;13.43;8.10;;;;;;;;;;10335563;28;20209;-74
2022/03/01 07:24:22;;;;;;;10.70;7.47;;;;;;;;;;10337404;28;20208;-75
2022/03/01 07:29:23;;;;;;;12.57;7.67;;;;;;;;;;10335464;28;20212;-76
2022/03/01 07:34:24;;;;;;;9.20;7.27;;;;;;;;;;10343133;28;20726;-82
2022/03/01 07:39:25;;;;;;;13.87;7.17;;;;;;;;;;10348927;28;20259;-76
2022/03/01 07:44:26;;;;;;;14.03;7.00;;;;;;;;;;10342660;28;20203;-77
2022/03/01 07:49:27;;;;;;;13.73;7.10;;;;;;;;;;10338424;28;20224;-77
2022/03/01 07:54:28;;;;;;;13.80;8.17;;;;;;;;;;10342075;28;20208;-78
2022/03/01 07:59:29;;;;;;;15.10;7.00;;;;;;;;;;10342044;28;20216;-76
2022/03/01 08:04:30;;;;;;;12.27;7.27;;;;;;;;;;10337012;28;20225;-76
2022/03/01 08:09:31;;;;;;;12.50;7.23;;;;;;;;;;10335891;28;20604;-76
2022/03/01 08:14:34;;;;;;;10.80;6.80;;;;;;;;;;10335472;28;20200;-77
2022/03/01 08:19:35;;;;;;;7.28;6.53;;;;;;;;;;10335530;28;20205;-75
2022/03/01 08:24:36;;;;;;;11.07;6.77;;;;;;;;;;10332471;28;20254;-75
2022/03/01 08:29:37;;;;;;;9.50;6.67;;;;;;;;;;10334930;28;20220;-75
2022/03/01 08:34:38;;;;;;;9.43;6.63;;;;;;;;;;10327589;28;20838;-75
2022/03/01 08:39:39;;;;;;;9.15;6.45;;;;;;;;;;10331757;28;20239;-71
2022/03/01 08:44:40;;;;;;;7.80;6.90;;;;;;;;;;10331007;28;20301;-75
2022/03/01 08:49:41;;;;;;;7.97;5.30;;;;;;;;;;10330777;28;20773;-76
2022/03/01 08:54:42;;;;;;;11.57;6.45;;;;;;;;;;10328015;28;20257;-76
2022/03/01 08:59:43;;;;;;;8.13;6.10;;;;;;;;;;10336155;28;20227;-77
2022/03/01 09:04:44;;;;;;;8.95;6.93;;;;;;;;;;10331886;28;20223;-77
2022/03/01 09:09:45;;;;;;;11.45;6.97;;;;;;;;;;10334154;28;20204;-77
2022/03/01 09:14:46;;;;;;;9.70;6.85;;;;;;;;;;10336532;28;20203;-78
2022/03/01 09:19:48;;;;;;;7.35;6.55;;;;;;;;;;10336601;28;20211;-79
2022/03/01 09:24:49;;;;;;;8.93;6.78;;;;;;;;;;10337988;28;20816;-81
2022/03/01 09:29:50;;;;;;;8.30;6.90;;;;;;;;;;10342245;28;20240;-79
2022/03/01 09:34:51;;;;;;;6.85;6.22;;;;;;;;;;10343306;28;20204;-79
2022/03/01 09:39:52;;;;;;;8.68;6.80;;;;;;;;;;10339899;28;20994;-78
2022/03/01 09:44:54;;;;;;;9.57;6.88;;;;;;;;;;10334231;28;20192;-79
2022/03/01 09:49:55;;;;;;;9.02;6.95;;;;;;;;;;10335035;28;22565;-76
2022/03/01 09:54:57;;;;;;;10.50;6.70;;;;;;;;;;10336317;28;20881;-78
2022/03/01 09:59:58;;;;;;;8.68;6.88;;;;;;;;;;10331643;28;20290;-79
2022/03/01 10:04:59;;;;;;;8.30;6.40;;;;;;;;;;10334273;28;20228;-77
2022/03/01 10:10:07;;;;;;;7.95;6.38;;;;;;;;;;10347478;28;20265;-79
2022/03/01 10:15:10;;;;;;;10.55;6.32;;;;;;;;;;10350308;28;20212;-79
2022/03/01 10:20:16;;;;;;;6.88;6.15;;;;;;;;;;10337800;28;20208;-77
2022/03/01 10:25:21;;;;;;;8.93;5.93;;;;;;;;;;10340074;28;20209;-81
2022/03/01 10:30:32;;;;;;;7.30;6.55;;;;;;;;;;10344799;28;20216;-79
2022/03/01 10:35:34;;;;;;;8.65;6.45;;;;;;;;;;10351605;28;20240;-79
2022/03/01 10:40:36;;;;;;;6.85;6.25;;;;;;;;;;10347792;28;20225;-83
2022/03/01 10:45:40;;;;;;;8.68;6.82;;;;;;;;;;10342265;28;20826;-79
2022/03/01 10:50:41;;;;;;;9.07;5.60;;;;;;;;;;10351074;28;20215;-81
2022/03/01 10:55:43;;;;;;;7.95;5.78;;;;;;;;;;10341353;28;20216;-80
2022/03/01 11:00:44;;;;;;;8.98;6.20;;;;;;;;;;10343150;28;20593;-79
2022/03/01 11:05:47;;;;;;;9.63;6.03;;;;;;;;;;10340344;28;20231;-78
2022/03/01 11:10:49;;;;;;;10.52;5.93;;;;;;;;;;10343998;28;20201;-78
2022/03/01 11:15:50;;;;;;;8.25;6.47;;;;;;;;;;10340981;28;20196;-79
2022/03/01 11:20:51;;;;;;;6.57;5.78;;;;;;;;;;10339613;28;20196;-81
2022/03/01 11:25:53;;;;;;;6.90;6.30;;;;;;;;;;10344946;28;20258;-81
2022/03/01 11:30:54;;;;;;;6.45;5.55;;;;;;;;;;10334440;28;20325;-81
2022/03/01 11:35:56;;;;;;;7.75;5.75;;;;;;;;;;10332299;28;20643;-81
2022/03/01 11:41:11;;;;;;;6.15;5.63;;;;;;;;;;10335095;28;20228;-81
2022/03/01 11:46:17;;;;;;;6.60;5.60;;;;;;;;;;10328764;28;20236;-80
2022/03/01 11:51:18;;;;;;;6.30;5.80;;;;;;;;;;10342832;28;20220;-79
2022/03/01 11:56:19;;;;;;;6.45;5.68;;;;;;;;;;10341379;28;20201;-81
2022/03/01 12:01:23;;;;;;;7.15;6.25;;;;;;;;;;10340742;28;20220;-81
2022/03/01 12:06:28;;;;;;;8.55;5.88;;;;;;;;;;10342022;28;20726;-78
2022/03/01 12:11:39;;;;;;;7.95;6.15;;;;;;;;;;10334930;28;20287;-78
2022/03/01 12:16:40;;;;;;;6.60;6.00;;;;;;;;;;10330553;28;20671;-79
2022/03/01 12:21:48;;;;;;;6.07;5.57;;;;;;;;;;10335389;28;20205;-77
2022/03/01 12:26:50;;;;;;;6.43;5.82;;;;;;;;;;10336031;28;20235;-78
2022/03/01 12:31:59;;;;;;;6.63;5.90;;;;;;;;;;10334609;28;20216;-79
2022/03/01 12:37:01;;;;;;;6.90;6.20;;;;;;;;;;10331971;28;20223;-79
2022/03/01 12:42:02;;;;;;;8.38;6.30;;;;;;;;;;10344982;28;20750;-78
2022/03/01 12:47:06;;;;;;;7.82;5.85;;;;;;;;;;10331843;28;20238;-79
2022/03/01 12:52:08;;;;;;;6.20;5.72;;;;;;;;;;10341845;28;20635;-79
2022/03/01 12:57:13;;;;;;;6.75;5.93;;;;;;;;;;10331532;28;20588;-80
2022/03/01 13:02:15;;;;;;;6.32;5.72;;;;;;;;;;10336705;28;20356;-80
2022/03/01 13:07:17;;;;;;;6.40;5.80;;;;;;;;;;10334353;28;20212;-79
2022/03/01 13:12:18;;;;;;;6.85;5.25;;;;;;;;;;10344632;28;20266;-80
2022/03/01 13:17:19;;;;;;;7.05;5.88;;;;;;;;;;10337829;28;20200;-79
2022/03/01 13:22:20;;;;;;;6.25;5.20;;;;;;;;;;10333362;28;20203;-81
2022/03/01 13:27:22;;;;;;;10.23;5.28;;;;;;;;;;10338234;28;20259;-81
2022/03/01 13:32:25;;;;;;;8.13;5.70;;;;;;;;;;10342252;28;20778;-81
2022/03/01 13:37:26;;;;;;;5.88;5.35;;;;;;;;;;10337318;28;20232;-77
2022/03/01 13:42:31;;;;;;;5.55;5.13;;;;;;;;;;10334485;28;20571;-81
2022/03/01 13:47:36;;;;;;;5.68;5.18;;;;;;;;;;10314847;28;21764;-78
2022/03/01 13:52:38;;;;;;;5.57;5.10;;;;;;;;;;10309464;28;20212;-84
2022/03/01 13:57:51;;;;;;;8.88;5.38;;;;;;;;;;10305461;28;20273;-84
2022/03/01 14:02:53;;;;;;;5.28;4.78;;;;;;;;;;10315149;28;20766;-79
2022/03/01 14:07:58;;;;;;;4.97;4.60;;;;;;;;;;10338318;28;20195;-81
2022/03/01 14:13:01;;;;;;;5.10;4.63;;;;;;;;;;10332045;28;20267;-82
2022/03/01 14:18:03;;;;;;;5.82;4.50;;;;;;;;;;10367143;28;20201;-83
2022/03/01 14:23:04;;;;;;;6.10;4.55;;;;;;;;;;10365053;28;20197;-81
2022/03/01 14:28:06;;;;;;;4.38;4.07;;;;;;;;;;10338984;28;20205;-80
2022/03/01 14:33:07;;;;;;;4.82;4.22;;;;;;;;;;10329773;28;20227;-81
2022/03/01 14:38:08;;;;;;;5.68;5.18;;;;;;;;;;10334809;28;20622;-79
2022/03/01 14:43:09;;;;;;;5.22;4.70;;;;;;;;;;10337233;28;20208;-81
2022/03/01 14:48:10;;;;;;;5.05;4.65;;;;;;;;;;10362877;28;20287;-80
2022/03/01 14:53:12;;;;;;;4.90;4.50;;;;;;;;;;10333029;28;20216;-82
2022/03/01 14:58:13;;;;;;;4.90;4.45;;;;;;;;;;10350611;28;20238;-80
2022/03/01 15:03:14;;;;;;;5.28;4.88;;;;;;;;;;10338948;28;20227;-78
2022/03/01 15:08:15;;;;;;;4.50;4.10;;;;;;;;;;10340784;28;20209;-80
2022/03/01 15:13:16;;;;;;;5.10;4.68;;;;;;;;;;10340562;28;20239;-78
2022/03/01 15:18:19;;;;;;;4.97;4.28;;;;;;;;;;10383856;28;20320;-78
2022/03/01 15:23:20;;;;;;;5.00;4.60;;;;;;;;;;10379250;28;20229;-77
2022/03/01 15:28:21;;;;;;;6.63;5.35;;;;;;;;;;10341206;28;20208;-77
2022/03/01 15:33:22;;;;;;;6.72;5.72;;;;;;;;;;10337361;28;20227;-79
2022/03/01 15:38:23;;;;;;;7.18;5.03;;;;;;;;;;10376503;28;20594;-83
2022/03/01 15:43:24;;;;;;;4.30;3.90;;;;;;;;;;10366272;28;20601;-82
2022/03/01 15:48:25;;;;;;;7.07;4.43;;;;;;;;;;10344302;28;20200;-84
2022/03/01 15:53:26;;;;;;;4.88;4.32;;;;;;;;;;10336029;28;20400;-79
2022/03/01 15:58:28;;;;;;;4.43;4.03;;;;;;;;;;10338197;28;20196;-79
2022/03/01 16:03:29;;;;;;;4.30;3.90;;;;;;;;;;10342473;28;20209;-80
2022/03/01 16:08:30;;;;;;;5.78;4.30;;;;;;;;;;10344817;28;20211;-78
2022/03/01 16:13:31;;;;;;;5.22;4.43;;;;;;;;;;10335482;28;20216;-77
2022/03/01 16:18:36;;;;;;;6.43;4.38;;;;;;;;;;10344711;28;20587;-77
2022/03/01 16:23:38;;;;;;;6.18;4.28;;;;;;;;;;10339517;28;20648;-77
2022/03/01 16:28:39;;;;;;;4.93;4.63;;;;;;;;;;10343331;28;20192;-77
2022/03/01 16:33:41;;;;;;;6.38;4.72;;;;;;;;;;10372226;28;20227;-82
2022/03/01 16:38:42;;;;;;;4.68;4.22;;;;;;;;;;10338721;28;20235;-80
2022/03/01 16:43:43;;;;;;;6.95;5.45;;;;;;;;;;10340070;28;20204;-79
2022/03/01 16:48:44;;;;;;;4.80;4.50;;;;;;;;;;10341648;28;20821;-78
2022/03/01 16:53:46;;;;;;;6.95;5.10;;;;;;;;;;10371179;28;20239;-79
2022/03/01 16:58:47;;;;;;;6.95;4.90;;;;;;;;;;10373030;28;20204;-78
2022/03/01 17:03:48;;;;;;;6.18;5.07;;;;;;;;;;10340655;28;20422;-78
2022/03/01 17:08:49;;;;;;;6.30;5.30;;;;;;;;;;10335410;28;20200;-80
2022/03/01 17:13:51;;;;;;;6.43;5.65;;;;;;;;;;10339489;28;20684;-80
2022/03/01 17:18:52;;;;;;;7.30;5.80;;;;;;;;;;10376404;28;20204;-80
2022/03/01 17:23:53;;;;;;;7.47;5.45;;;;;;;;;;10342717;28;20196;-78
2022/03/01 17:28:54;;;;;;;6.85;5.80;;;;;;;;;;10334697;28;20235;-78
2022/03/01 17:33:55;;;;;;;9.48;6.22;;;;;;;;;;10346046;28;20771;-74
2022/03/01 17:38:56;;;;;;;7.70;6.53;;;;;;;;;;10332712;28;20238;-75
2022/03/01 17:43:57;;;;;;;12.00;7.85;;;;;;;;;;10365992;28;20299;-76
2022/03/01 17:48:58;;;;;;;9.98;7.50;;;;;;;;;;10335961;28;20616;-78
2022/03/01 17:53:59;;;;;;;8.57;7.78;;;;;;;;;;10339418;28;20259;-77
2022/03/01 17:59:01;;;;;;;9.43;8.25;;;;;;;;;;10335715;28;20318;-77
2022/03/01 18:04:02;;;;;;;10.23;7.53;;;;;;;;;;10332775;28;20227;-75
2022/03/01 18:09:03;;;;;;;8.30;7.50;;;;;;;;;;10334546;28;20212;-75
2022/03/01 18:14:05;;;;;;;11.95;8.02;;;;;;;;;;10332668;28;21056;-79
2022/03/01 18:19:06;;;;;;;12.23;8.55;;;;;;;;;;10336790;28;20571;-79
2022/03/01 18:24:07;;;;;;;11.98;8.48;;;;;;;;;;10339230;28;20212;-80
2022/03/01 18:29:08;;;;;;;9.88;8.88;;;;;;;;;;10376115;28;20283;-80
2022/03/01 18:34:11;;;;;;;10.52;9.43;;;;;;;;;;10349522;28;20216;-77
2022/03/01 18:39:14;;;;;;;12.80;9.60;;;;;;;;;;10347980;28;20756;-78
2022/03/01 18:44:15;;;;;;;13.98;10.77;;;;;;;;;;10347203;28;20300;-77
2022/03/01 18:49:16;;;;;;;15.27;9.60;;;;;;;;;;10359993;28;20656;-79
2022/03/01 18:54:18;;;;;;;13.32;10.23;;;;;;;;;;10346509;28;20193;-78
2022/03/01 18:59:19;;;;;;;13.07;9.90;;;;;;;;;;10350664;28;20226;-77
2022/03/01 19:04:21;;;;;;;12.80;10.20;;;;;;;;;;10343685;28;20591;-77
2022/03/01 19:09:22;;;;;;;12.30;10.23;;;;;;;;;;10347636;28;20643;-76
2022/03/01 19:14:23;;;;;;;17.25;10.88;;;;;;;;;;10367405;28;20212;-77
2022/03/01 19:19:24;;;;;;;14.57;10.70;;;;;;;;;;10350200;28;20788;-78
2022/03/01 19:24:25;;;;;;;15.98;11.45;;;;;;;;;;10347323;28;20208;-78
2022/03/01 19:29:26;;;;;;;18.77;11.05;;;;;;;;;;10347943;28;20232;-78
2022/03/01 19:34:27;;;;;;;16.27;10.32;;;;;;;;;;10344304;28;20354;-80
2022/03/01 19:39:28;;;;;;;15.07;10.50;;;;;;;;;;10351224;28;20236;-78
2022/03/01 19:44:29;;;;;;;16.60;11.20;;;;;;;;;;10347505;28;20200;-78
2022/03/01 19:49:30;;;;;;;15.90;10.90;;;;;;;;;;10342201;28;20252;-78
2022/03/01 19:54:31;;;;;;;14.98;10.48;;;;;;;;;;10376544;28;20735;-82
2022/03/01 19:59:32;;;;;;;19.98;11.30;;;;;;;;;;10343378;28;20759;-80
2022/03/01 20:04:33;;;;;;;15.52;11.65;;;;;;;;;;10335060;28;20229;-77
2022/03/01 20:09:34;;;;;;;20.70;11.55;;;;;;;;;;10341012;28;20212;-79
2022/03/01 20:14:35;;;;;;;19.65;12.00;;;;;;;;;;10341227;28;20573;-77
2022/03/01 20:19:36;;;;;;;17.08;11.82;;;;;;;;;;10339070;28;20565;-77
2022/03/01 20:24:38;;;;;;;20.90;12.20;;;;;;;;;;10345042;28;20238;-77
2022/03/01 20:29:39;;;;;;;22.90;13.27;;;;;;;;;;10344367;28;20213;-78
2022/03/01 20:34:40;;;;;;;23.50;14.50;;;;;;;;;;10336898;28;20262;-77
2022/03/01 20:39:41;;;;;;;26.30;15.68;;;;;;;;;;10342388;28;20235;-79
2022/03/01 20:44:42;;;;;;;25.02;15.18;;;;;;;;;;10339209;28;20204;-78
2022/03/01 20:49:43;;;;;;;26.55;14.73;;;;;;;;;;10339486;28;20219;-79
2022/03/01 20:54:44;;;;;;;29.70;16.38;;;;;;;;;;10337214;28;20972;-78
2022/03/01 20:59:45;;;;;;;24.58;15.40;;;;;;;;;;10334573;28;20196;-78
2022/03/01 21:04:46;;;;;;;24.60;15.13;;;;;;;;;;10337564;28;20684;-79
2022/03/01 21:09:47;;;;;;;26.92;17.02;;;;;;;;;;10338249;28;20216;-78
2022/03/01 21:14:49;;;;;;;25.17;16.67;;;;;;;;;;10334159;28;20860;-79
2022/03/01 21:19:50;;;;;;;25.08;16.48;;;;;;;;;;10337506;28;20197;-78
2022/03/01 21:24:51;;;;;;;19.33;14.25;;;;;;;;;;10333804;28;20208;-79
2022/03/01 21:29:52;;;;;;;27.58;16.25;;;;;;;;;;10363899;28;20303;-78
2022/03/01 21:34:53;;;;;;;26.35;15.27;;;;;;;;;;10334461;28;20200;-78
2022/03/01 21:39:54;;;;;;;20.87;14.00;;;;;;;;;;10337869;28;20323;-78
2022/03/01 21:44:56;;;;;;;25.77;15.20;;;;;;;;;;10334173;28;20289;-78
2022/03/01 21:49:57;;;;;;;27.30;15.23;;;;;;;;;;10335820;28;20232;-77
2022/03/01 21:54:58;;;;;;;24.57;15.83;;;;;;;;;;10334888;28;20212;-77
2022/03/01 21:59:59;;;;;;;28.97;16.07;;;;;;;;;;10336405;28;20217;-78
2022/03/01 22:05:00;;;;;;;20.60;14.33;;;;;;;;;;10331849;28;20228;-78
2022/03/01 22:10:01;;;;;;;23.25;14.50;;;;;;;;;;10336757;28;20227;-77
2022/03/01 22:15:03;;;;;;;24.42;14.05;;;;;;;;;;10364457;28;20204;-78
2022/03/01 22:20:04;;;;;;;23.48;14.85;;;;;;;;;;10336398;28;20211;-78
2022/03/01 22:25:06;;;;;;;21.80;14.75;;;;;;;;;;10334514;28;20196;-78
2022/03/01 22:30:10;;;;;;;20.67;15.02;;;;;;;;;;10334035;28;20331;-78
2022/03/01 22:35:12;;;;;;;21.48;14.45;;;;;;;;;;10330738;28;20216;-78
2022/03/01 22:40:14;;;;;;;19.58;13.82;;;;;;;;;;10331926;28;20224;-78
2022/03/01 22:45:15;;;;;;;20.65;14.05;;;;;;;;;;10332492;28;20221;-78
2022/03/01 22:50:18;;;;;;;21.20;13.20;;;;;;;;;;10334067;28;20246;-77
2022/03/01 22:55:23;;;;;;;18.80;12.95;;;;;;;;;;10336351;28;20209;-77
2022/03/01 23:00:27;;;;;;;20.40;13.55;;;;;;;;;;10364924;28;20638;-78
2022/03/01 23:05:29;;;;;;;21.17;13.32;;;;;;;;;;10361988;28;20287;-78
2022/03/01 23:10:30;;;;;;;22.33;13.45;;;;;;;;;;10331371;28;20213;-77
2022/03/01 23:15:31;;;;;;;18.15;12.55;;;;;;;;;;10338966;28;20250;-78
2022/03/01 23:20:32;;;;;;;19.10;13.32;;;;;;;;;;10339619;28;20204;-78
2022/03/01 23:25:34;;;;;;;17.15;12.73;;;;;;;;;;10340861;28;20672;-77
2022/03/01 23:30:36;;;;;;;19.65;13.25;;;;;;;;;;10341871;28;20220;-77
2022/03/01 23:35:37;;;;;;;16.63;11.65;;;;;;;;;;10338998;28;21062;-77
2022/03/01 23:40:38;;;;;;;20.67;13.13;;;;;;;;;;10372393;28;20228;-77
2022/03/01 23:45:39;;;;;;;16.70;11.32;;;;;;;;;;10371350;28;20212;-77
2022/03/01 23:50:40;;;;;;;18.10;11.57;;;;;;;;;;10370656;28;20735;-77
2022/03/01 23:55:41;;;;;;;18.15;12.45;;;;;;;;;;10337663;28;20224;-77
